createdAt,value
2019-02-08T00:00:25.462Z,2.00
2019-02-08T00:02:54.355Z,2.03
2019-02-08T00:05:23.049Z,2.37
2019-02-08T00:07:51.961Z,2.37
2019-02-08T00:10:21.596Z,2.53
2019-02-08T00:12:50.289Z,2.50
2019-02-08T00:15:23.264Z,2.17
2019-02-08T00:17:52.239Z,2.20
2019-02-08T00:20:21.898Z,1.87
2019-02-08T00:22:50.506Z,2.80
2019-02-08T00:25:22.825Z,2.47
2019-02-08T00:27:51.341Z,2.00
2019-02-08T00:30:32.849Z,3.20
2019-02-08T00:33:01.544Z,3.40
2019-02-08T00:35:29.974Z,2.77
2019-02-08T00:37:58.390Z,3.83
2019-02-08T00:40:27.639Z,3.43
2019-02-08T00:42:57.537Z,3.30
2019-02-08T00:45:25.950Z,3.43
2019-02-08T00:47:54.379Z,2.20
2019-02-08T00:50:28.258Z,3.40
2019-02-08T00:52:56.940Z,3.70
2019-02-08T00:55:25.619Z,3.70
2019-02-08T00:57:54.097Z,3.60
2019-02-08T01:00:23.230Z,3.33
2019-02-08T01:02:53.734Z,3.40
2019-02-08T01:05:28.870Z,4.37
2019-02-08T01:07:57.548Z,3.40
2019-02-08T01:10:33.958Z,2.53
2019-02-08T01:13:03.035Z,4.43
2019-02-08T01:15:33.098Z,3.27
2019-02-08T01:18:02.793Z,4.57
2019-02-08T01:20:31.287Z,3.93
2019-02-08T01:22:59.696Z,4.63
2019-02-08T01:25:30.060Z,3.20
2019-02-08T01:27:58.743Z,4.67
2019-02-08T01:30:34.480Z,4.27
2019-02-08T01:33:03.777Z,4.53
2019-02-08T01:35:32.848Z,5.00
2019-02-08T01:38:01.755Z,4.40
2019-02-08T01:40:38.117Z,3.20
2019-02-08T01:43:08.670Z,4.40
2019-02-08T01:45:37.353Z,5.43
2019-02-08T01:48:07.896Z,4.60
2019-02-08T01:50:36.308Z,4.83
2019-02-08T01:53:05.868Z,5.20
2019-02-08T01:55:34.637Z,5.03
2019-02-08T01:58:03.075Z,5.07
2019-02-08T02:00:34.521Z,5.30
2019-02-08T02:03:04.563Z,5.47
2019-02-08T02:05:32.979Z,5.30
2019-02-08T02:08:01.401Z,4.27
2019-02-08T02:10:38.647Z,5.60
2019-02-08T02:13:07.896Z,5.50
2019-02-08T02:15:36.367Z,4.97
2019-02-08T02:18:06.516Z,4.63
2019-02-08T02:20:39.858Z,6.27
2019-02-08T02:23:09.856Z,7.00
2019-02-08T02:25:38.281Z,5.23
2019-02-08T02:28:07.436Z,5.20
2019-02-08T02:30:37.011Z,6.47
2019-02-08T02:33:08.777Z,6.43
2019-02-08T02:35:37.485Z,6.40
2019-02-08T02:38:06.455Z,4.50
2019-02-08T02:40:34.870Z,6.73
2019-02-08T02:43:03.539Z,7.27
2019-02-08T02:45:34.774Z,5.50
2019-02-08T02:48:04.541Z,6.30
2019-02-08T02:50:32.946Z,7.37
2019-02-08T02:53:01.348Z,5.97
2019-02-08T02:55:30.917Z,6.23
2019-02-08T02:57:59.474Z,7.00
2019-02-08T03:00:30.967Z,3.67
2019-02-08T03:02:59.727Z,8.23
2019-02-08T03:05:29.069Z,7.13
2019-02-08T03:07:57.764Z,7.67
2019-02-08T03:10:27.916Z,6.83
2019-02-08T03:12:56.336Z,7.30
2019-02-08T03:15:25.678Z,7.40
2019-02-08T03:17:54.650Z,8.60
2019-02-08T03:20:25.552Z,7.27
2019-02-08T03:22:53.968Z,6.73
2019-02-08T03:25:27.425Z,7.87
2019-02-08T03:27:56.176Z,9.20
2019-02-08T03:30:31.432Z,10.27
2019-02-08T03:32:59.895Z,8.67
2019-02-08T03:35:28.926Z,8.33
2019-02-08T03:37:57.357Z,10.23
2019-02-08T03:40:29.109Z,7.70
2019-02-08T03:42:57.817Z,10.00
2019-02-08T03:45:28.145Z,8.97
2019-02-08T03:47:56.636Z,8.20
2019-02-08T03:50:25.699Z,9.87
2019-02-08T03:52:54.997Z,9.80
2019-02-08T03:55:24.232Z,9.93
2019-02-08T03:57:52.645Z,9.73
2019-02-08T04:00:28.039Z,11.40
2019-02-08T04:02:56.568Z,10.27
2019-02-08T04:05:25.406Z,9.77
2019-02-08T04:07:54.189Z,8.60
2019-02-08T04:10:22.888Z,11.10
2019-02-08T04:12:51.585Z,10.60
2019-02-08T04:15:22.324Z,8.43
2019-02-08T04:17:51.101Z,10.47
2019-02-08T04:20:25.995Z,9.30
2019-02-08T04:22:55.750Z,6.23
2019-02-08T04:25:24.819Z,8.80
2019-02-08T04:27:54.105Z,8.07
2019-02-08T04:30:27.734Z,11.10
2019-02-08T04:32:57.292Z,11.27
2019-02-08T04:35:26.261Z,8.37
2019-02-08T04:37:54.691Z,8.57
2019-02-08T04:40:24.853Z,6.60
2019-02-08T04:42:53.928Z,9.17
2019-02-08T04:45:23.004Z,12.17
2019-02-08T04:47:51.408Z,10.53
2019-02-08T04:50:22.449Z,8.43
2019-02-08T04:52:51.037Z,11.00
2019-02-08T04:55:19.718Z,9.53
2019-02-08T04:57:48.183Z,9.50
2019-02-08T05:00:31.992Z,10.00
2019-02-08T05:03:00.674Z,7.53
2019-02-08T05:05:29.344Z,8.77
2019-02-08T05:07:57.741Z,5.23
2019-02-08T05:10:29.399Z,10.40
2019-02-08T05:12:58.201Z,9.17
2019-02-08T05:15:27.067Z,8.80
2019-02-08T05:17:55.487Z,5.80
2019-02-08T05:20:26.665Z,9.17
2019-02-08T05:22:55.109Z,8.63
2019-02-08T05:25:23.677Z,9.83
2019-02-08T05:27:52.797Z,8.77
2019-02-08T05:30:24.793Z,9.57
2019-02-08T05:32:53.516Z,10.20
2019-02-08T05:35:22.092Z,9.23
2019-02-08T05:37:50.496Z,9.63
2019-02-08T05:40:20.676Z,5.37
2019-02-08T05:42:49.453Z,8.00
2019-02-08T05:45:20.228Z,7.43
2019-02-08T05:47:48.646Z,8.47
2019-02-08T05:50:25.682Z,8.23
2019-02-08T05:52:54.280Z,8.83
2019-02-08T05:55:25.992Z,8.00
2019-02-08T05:57:54.969Z,8.03
2019-02-08T06:00:42.594Z,7.33
2019-02-08T06:03:10.993Z,8.13
2019-02-08T06:05:40.684Z,7.50
2019-02-08T06:08:09.328Z,6.83
2019-02-08T06:10:38.164Z,7.13
2019-02-08T06:13:08.338Z,7.10
2019-02-08T06:15:37.296Z,6.93
2019-02-08T06:18:07.848Z,7.53
2019-02-08T06:20:36.846Z,6.87
2019-02-08T06:23:06.396Z,8.37
2019-02-08T06:25:34.812Z,7.53
2019-02-08T06:28:03.548Z,6.90
2019-02-08T06:30:32.234Z,8.90
2019-02-08T06:33:00.943Z,5.00
2019-02-08T06:35:31.076Z,5.47
2019-02-08T06:37:59.690Z,7.40
2019-02-08T06:40:31.489Z,6.03
2019-02-08T06:43:01.423Z,6.00
2019-02-08T06:45:30.437Z,8.03
2019-02-08T06:47:58.895Z,9.07
2019-02-08T06:50:28.424Z,5.67
2019-02-08T06:52:56.843Z,6.30
2019-02-08T06:55:27.631Z,5.03
2019-02-08T06:57:57.844Z,6.37
2019-02-08T07:00:40.756Z,5.20
2019-02-08T07:06:04.293Z,6.20
2019-02-08T07:08:43.449Z,6.13
2019-02-08T07:11:13.498Z,7.70
2019-02-08T07:13:49.324Z,6.63
2019-02-08T07:16:31.245Z,6.93
2019-02-08T07:19:04.269Z,6.70
2019-02-08T07:21:36.971Z,6.77
2019-02-08T07:24:08.352Z,7.67
2019-02-08T07:26:38.373Z,6.10
2019-02-08T07:29:09.172Z,6.50
2019-02-08T07:31:45.983Z,5.17
2019-02-08T07:34:16.058Z,5.40
2019-02-08T07:36:49.225Z,5.97
2019-02-08T07:39:28.865Z,6.37
2019-02-08T07:42:02.797Z,6.47
2019-02-08T07:44:34.749Z,6.60
2019-02-08T07:47:05.251Z,5.80
2019-02-08T07:49:46.868Z,6.83
2019-02-08T07:52:17.072Z,5.73
2019-02-08T07:54:59.151Z,7.60
2019-02-08T07:57:29.761Z,6.90
2019-02-08T08:00:09.246Z,5.57
2019-02-08T08:02:42.245Z,7.03
2019-02-08T08:05:12.516Z,6.00
2019-02-08T08:07:44.454Z,4.00
2019-02-08T08:10:28.629Z,5.70
2019-02-08T08:13:04.402Z,5.13
2019-02-08T08:15:37.577Z,5.43
2019-02-08T08:18:32.837Z,6.70
2019-02-08T08:21:03.284Z,5.97
2019-02-08T08:23:37.837Z,6.23
2019-02-08T08:26:11.760Z,6.10
2019-02-08T08:28:44.668Z,6.83
2019-02-08T08:31:16.059Z,7.40
2019-02-08T08:33:50.097Z,6.27
2019-02-08T08:36:27.427Z,7.37
2019-02-08T08:39:15.326Z,6.60
2019-02-08T08:42:13.350Z,8.80
2019-02-08T08:44:50.633Z,7.50
2019-02-08T08:47:36.949Z,7.10
2019-02-08T08:50:43.113Z,7.23
2019-02-08T08:53:35.549Z,8.23
2019-02-08T08:56:07.063Z,8.23
2019-02-08T08:58:43.735Z,8.33
2019-02-08T09:01:17.960Z,9.67
2019-02-08T09:03:58.585Z,8.30
2019-02-08T09:06:35.276Z,8.73
2019-02-08T09:09:24.875Z,8.77
2019-02-08T09:12:01.577Z,9.97
2019-02-08T09:14:48.013Z,11.23
2019-02-08T09:17:37.626Z,9.30
2019-02-08T09:20:40.970Z,8.27
2019-02-08T09:23:15.022Z,9.50
2019-02-08T09:26:19.408Z,8.13
2019-02-08T09:29:22.361Z,8.27
2019-02-08T09:32:11.449Z,6.70
2019-02-08T09:34:55.227Z,8.53
2019-02-08T09:37:32.908Z,9.03
2019-02-08T09:40:19.133Z,7.97
2019-02-08T09:43:20.812Z,10.30
2019-02-08T09:45:57.888Z,9.40
2019-02-08T09:48:48.594Z,9.67
2019-02-08T09:51:37.868Z,9.40
2019-02-08T09:54:34.816Z,9.00
2019-02-08T09:57:25.622Z,9.97
2019-02-08T10:00:09.029Z,10.60
2019-02-08T10:03:15.156Z,9.33
2019-02-08T10:05:52.359Z,12.93
2019-02-08T10:08:43.346Z,9.33
2019-02-08T10:11:47.841Z,9.23
2019-02-08T10:14:35.916Z,11.73
2019-02-08T10:17:24.084Z,11.30
2019-02-08T10:20:10.505Z,11.70
2019-02-08T10:23:15.284Z,10.60
2019-02-08T10:25:52.289Z,12.37
2019-02-08T10:28:57.081Z,10.43
2019-02-08T10:31:34.213Z,12.07
2019-02-08T10:34:20.798Z,10.00
2019-02-08T10:37:00.870Z,10.43
2019-02-08T10:39:47.556Z,12.27
2019-02-08T10:42:30.666Z,14.23
2019-02-08T10:45:14.092Z,13.00
2019-02-08T10:48:11.100Z,11.80
2019-02-08T10:50:54.484Z,12.93
2019-02-08T10:53:43.585Z,12.67
2019-02-08T10:56:34.373Z,13.70
2019-02-08T10:59:30.811Z,14.80
2019-02-08T11:02:23.565Z,12.70
2019-02-08T11:04:58.149Z,14.17
2019-02-08T11:07:44.208Z,13.60
2019-02-08T11:10:15.690Z,12.97
2019-02-08T11:13:15.744Z,17.47
2019-02-08T11:16:12.981Z,12.87
2019-02-08T11:19:16.445Z,11.87
2019-02-08T11:21:46.415Z,13.07
2019-02-08T11:24:16.296Z,12.07
2019-02-08T11:26:45.256Z,13.57
2019-02-08T11:29:14.213Z,13.43
2019-02-08T11:31:42.652Z,13.20
2019-02-08T11:34:12.051Z,13.30
2019-02-08T11:36:40.656Z,14.47
2019-02-08T11:39:16.140Z,13.10
2019-02-08T11:41:48.464Z,11.33
2019-02-08T11:44:17.817Z,13.00
2019-02-08T11:46:46.821Z,11.20
2019-02-08T11:49:16.682Z,12.33
2019-02-08T11:51:45.108Z,11.53
2019-02-08T11:54:13.613Z,10.63
2019-02-08T11:56:42.018Z,10.00
2019-02-08T11:59:10.570Z,11.73
2019-02-08T12:01:40.843Z,10.87
2019-02-08T12:04:09.664Z,10.67
2019-02-08T12:06:38.169Z,10.40
2019-02-08T12:09:12.308Z,10.77
2019-02-08T12:11:40.990Z,9.43
2019-02-08T12:14:09.825Z,9.87
2019-02-08T12:16:38.302Z,9.17
2019-02-08T12:19:07.082Z,9.93
2019-02-08T12:21:35.519Z,9.07
2019-02-08T12:24:04.704Z,8.23
2019-02-08T12:26:37.751Z,8.73
2019-02-08T12:29:03.303Z,7.80
2019-02-08T12:31:31.694Z,9.37
2019-02-08T12:34:00.193Z,8.83
2019-02-08T12:36:28.603Z,8.53
2019-02-08T12:38:57.041Z,8.17
2019-02-08T12:41:26.442Z,7.67
2019-02-08T12:43:54.944Z,6.77
2019-02-08T12:46:23.354Z,9.10
2019-02-08T12:48:51.753Z,6.77
2019-02-08T12:51:20.151Z,7.70
2019-02-08T12:53:48.571Z,6.57
2019-02-08T12:56:17.139Z,6.53
2019-02-08T12:58:47.368Z,7.60
2019-02-08T13:01:15.798Z,6.57
2019-02-08T13:03:44.597Z,6.77
2019-02-08T13:06:13.365Z,8.33
2019-02-08T13:08:41.782Z,5.30
2019-02-08T13:11:10.207Z,6.13
2019-02-08T13:13:38.609Z,5.73
2019-02-08T13:16:07.076Z,6.57
2019-02-08T13:18:35.511Z,6.20
2019-02-08T13:21:04.497Z,6.87
2019-02-08T13:23:32.906Z,7.60
2019-02-08T13:26:01.304Z,6.10
2019-02-08T13:28:29.707Z,6.50
2019-02-08T13:30:58.154Z,6.30
2019-02-08T13:33:26.575Z,5.63
2019-02-08T13:35:54.996Z,5.33
2019-02-08T13:38:23.543Z,5.30
2019-02-08T13:40:51.980Z,4.97
2019-02-08T13:43:20.417Z,5.10
2019-02-08T13:45:49.017Z,4.60
2019-02-08T13:48:17.419Z,5.13
2019-02-08T13:50:46.001Z,4.93
2019-02-08T13:53:14.661Z,6.57
2019-02-08T13:55:43.076Z,4.60
2019-02-08T13:58:11.499Z,4.10
2019-02-08T14:00:41.247Z,4.93
2019-02-08T14:03:09.850Z,4.70
2019-02-08T14:05:38.253Z,5.03
2019-02-08T14:08:08.534Z,6.17
2019-02-08T14:10:36.941Z,5.40
2019-02-08T14:13:06.028Z,5.80
2019-02-08T14:15:35.469Z,4.70
2019-02-08T14:18:04.541Z,4.07
2019-02-08T14:20:33.517Z,4.50
2019-02-08T14:23:02.518Z,4.30
2019-02-08T14:25:31.517Z,5.83
2019-02-08T14:27:59.900Z,3.33
2019-02-08T14:30:39.941Z,3.90
2019-02-08T14:33:08.335Z,4.10
2019-02-08T14:35:37.600Z,3.43
2019-02-08T14:38:09.342Z,3.20
2019-02-08T14:40:39.130Z,2.87
2019-02-08T14:43:07.520Z,3.00
2019-02-08T14:45:36.154Z,3.43
2019-02-08T14:48:05.158Z,4.10
2019-02-08T14:50:33.693Z,3.80
2019-02-08T14:53:02.100Z,4.13
2019-02-08T14:55:30.523Z,3.20
2019-02-08T14:58:03.820Z,2.47
2019-02-08T15:00:32.493Z,3.43
2019-02-08T15:03:00.924Z,2.87
2019-02-08T15:05:29.339Z,2.93
2019-02-08T15:07:57.943Z,2.63
2019-02-08T15:10:29.494Z,2.00
2019-02-08T15:13:00.212Z,2.80
2019-02-08T15:15:28.937Z,3.53
2019-02-08T15:17:57.363Z,2.80
2019-02-08T15:20:28.275Z,2.07
2019-02-08T15:22:56.687Z,3.10
2019-02-08T15:25:25.435Z,2.97
2019-02-08T15:27:53.848Z,3.10
2019-02-08T15:30:24.990Z,3.50
2019-02-08T15:32:53.461Z,2.40
2019-02-08T15:35:24.201Z,2.50
2019-02-08T15:37:52.636Z,2.67
2019-02-08T15:40:35.949Z,2.60
2019-02-08T15:43:05.370Z,3.00
2019-02-08T15:45:34.037Z,3.03
2019-02-08T15:48:02.537Z,2.83
2019-02-08T15:50:31.023Z,3.10
2019-02-08T15:52:59.784Z,3.30
2019-02-08T15:55:33.932Z,2.10
2019-02-08T15:58:02.339Z,2.93
2019-02-08T16:00:33.808Z,3.13
2019-02-08T16:03:02.777Z,3.03
2019-02-08T16:05:32.003Z,2.80
2019-02-08T16:08:00.445Z,3.80
2019-02-08T16:10:28.857Z,3.43
2019-02-08T16:12:57.283Z,2.80
2019-02-08T16:15:30.743Z,2.67
2019-02-08T16:17:59.263Z,2.53
2019-02-08T16:20:29.134Z,3.30
2019-02-08T16:22:59.630Z,2.90
2019-02-08T16:25:30.095Z,3.23
2019-02-08T16:27:58.862Z,4.43
2019-02-08T16:30:32.421Z,3.17
2019-02-08T16:33:01.352Z,4.37
2019-02-08T16:35:30.401Z,3.43
2019-02-08T16:37:59.176Z,2.20
2019-02-08T16:40:29.599Z,2.80
2019-02-08T16:42:58.076Z,2.40
2019-02-08T16:45:38.077Z,2.73
2019-02-08T16:48:09.881Z,3.10
2019-02-08T16:50:38.851Z,4.27
2019-02-08T16:53:08.621Z,2.80
2019-02-08T16:55:37.028Z,2.77
2019-02-08T16:58:07.565Z,2.87
2019-02-08T17:00:37.824Z,3.20
2019-02-08T17:03:15.722Z,3.00
2019-02-08T17:05:44.503Z,2.70
2019-02-08T17:08:12.904Z,3.10
2019-02-08T17:10:41.748Z,3.07
2019-02-08T17:13:10.519Z,3.20
2019-02-08T17:15:40.495Z,2.97
2019-02-08T17:18:09.476Z,3.23
2019-02-08T17:20:40.987Z,3.50
2019-02-08T17:23:09.832Z,3.13
2019-02-08T17:25:38.778Z,3.10
2019-02-08T17:28:08.124Z,3.57
2019-02-08T17:30:36.823Z,2.87
2019-02-08T17:33:06.811Z,2.90
2019-02-08T17:35:35.294Z,2.70
2019-02-08T17:38:04.061Z,3.50
2019-02-08T17:40:35.241Z,2.90
2019-02-08T17:43:04.222Z,2.80
2019-02-08T17:45:32.646Z,2.60
2019-02-08T17:48:04.504Z,3.10
2019-02-08T17:50:32.916Z,3.50
2019-02-08T17:53:01.313Z,2.67
2019-02-08T17:55:29.887Z,3.30
2019-02-08T17:58:03.718Z,3.60
2019-02-08T18:00:55.926Z,2.77
2019-02-08T18:03:24.591Z,3.37
2019-02-08T18:05:53.010Z,3.10
2019-02-08T18:08:21.402Z,2.57
2019-02-08T18:10:49.808Z,3.93
2019-02-08T18:13:19.883Z,2.20
2019-02-08T18:15:48.297Z,2.97
2019-02-08T18:18:17.748Z,2.63
2019-02-08T18:20:58.260Z,3.03
2019-02-08T18:23:26.688Z,2.20
2019-02-08T18:25:55.189Z,3.70
2019-02-08T18:28:23.603Z,2.40
2019-02-08T18:30:52.001Z,2.40
2019-02-08T18:33:20.411Z,2.00
2019-02-08T18:35:48.833Z,2.87
2019-02-08T18:38:17.254Z,2.80
2019-02-08T18:40:45.677Z,2.53
2019-02-08T18:43:14.104Z,2.53
2019-02-08T18:45:42.583Z,2.70
2019-02-08T18:48:10.988Z,2.70
2019-02-08T18:50:45.193Z,1.87
2019-02-08T18:53:13.604Z,2.77
2019-02-08T18:55:42.160Z,2.67
2019-02-08T18:58:18.429Z,2.03
2019-02-08T19:00:46.809Z,4.20
2019-02-08T19:03:15.408Z,3.07
2019-02-08T19:05:43.840Z,2.80
2019-02-08T19:08:12.240Z,3.13
2019-02-08T19:10:40.839Z,2.83
2019-02-08T19:13:09.272Z,2.53
2019-02-08T19:15:37.704Z,3.07
2019-02-08T19:18:06.749Z,3.60
2019-02-08T19:20:35.516Z,2.47
2019-02-08T19:23:05.360Z,2.80
2019-02-08T19:25:39.503Z,2.87
2019-02-08T19:28:09.551Z,3.70
2019-02-08T19:30:40.818Z,3.20
2019-02-08T19:33:09.364Z,3.00
2019-02-08T19:35:37.774Z,3.20
2019-02-08T19:38:07.941Z,3.10
2019-02-08T19:40:41.045Z,2.90
2019-02-08T19:43:09.718Z,2.73
2019-02-08T19:45:38.130Z,3.20
2019-02-08T19:48:08.192Z,4.17
2019-02-08T19:50:39.093Z,2.77
2019-02-08T19:53:08.338Z,2.80
2019-02-08T19:55:36.834Z,3.20
2019-02-08T19:58:06.392Z,3.27
2019-02-08T20:00:36.860Z,2.67
2019-02-08T20:03:06.802Z,2.57
2019-02-08T20:05:35.209Z,3.00
2019-02-08T20:08:04.203Z,3.03
2019-02-08T20:10:38.332Z,3.43
2019-02-08T20:13:06.735Z,3.10
2019-02-08T20:15:36.352Z,4.20
2019-02-08T20:18:05.741Z,3.83
2019-02-08T20:20:34.160Z,4.23
2019-02-08T20:23:02.722Z,3.90
2019-02-08T20:25:35.707Z,4.63
2019-02-08T20:28:04.781Z,4.77
2019-02-08T20:30:36.200Z,3.80
2019-02-08T20:33:06.397Z,3.27
2019-02-08T20:35:34.823Z,2.80
2019-02-08T20:38:04.648Z,5.73
2019-02-08T20:40:35.481Z,3.47
2019-02-08T20:43:03.888Z,3.80
2019-02-08T20:45:34.757Z,3.03
2019-02-08T20:48:06.574Z,3.40
2019-02-08T20:50:35.156Z,2.60
2019-02-08T20:53:04.691Z,2.67
2019-02-08T20:55:33.783Z,2.10
2019-02-08T20:58:02.445Z,3.80
2019-02-08T21:00:37.246Z,3.33
2019-02-08T21:03:11.178Z,2.77
2019-02-08T21:05:40.457Z,3.10
2019-02-08T21:08:10.403Z,3.37
2019-02-08T21:10:40.320Z,2.97
2019-02-08T21:13:10.249Z,3.63
2019-02-08T21:15:39.830Z,2.77
2019-02-08T21:18:09.236Z,3.67
2019-02-08T21:20:40.465Z,3.63
2019-02-08T21:23:09.675Z,2.87
2019-02-08T21:25:40.105Z,2.53
2019-02-08T21:28:08.877Z,2.50
2019-02-08T21:30:37.737Z,2.80
2019-02-08T21:33:08.630Z,2.63
2019-02-08T21:35:37.656Z,2.53
2019-02-08T21:38:07.510Z,3.17
2019-02-08T21:40:37.830Z,2.43
2019-02-08T21:43:07.074Z,2.17
2019-02-08T21:45:43.387Z,2.00
2019-02-08T21:48:13.021Z,2.37
2019-02-08T21:50:42.032Z,2.97
2019-02-08T21:53:10.705Z,2.70
2019-02-08T21:55:39.137Z,2.27
2019-02-08T21:58:09.100Z,2.33
2019-02-08T22:00:40.437Z,2.10
2019-02-08T22:03:09.249Z,2.70
2019-02-08T22:05:52.537Z,3.10
2019-02-08T22:08:21.384Z,2.03
2019-02-08T22:10:49.830Z,1.97
2019-02-08T22:13:18.237Z,2.50
2019-02-08T22:15:47.017Z,1.97
2019-02-08T22:18:15.516Z,2.60
2019-02-08T22:20:43.974Z,1.70
2019-02-08T22:23:12.493Z,1.90
2019-02-08T22:25:40.960Z,2.80
2019-02-08T22:28:09.507Z,1.93
2019-02-08T22:30:39.025Z,2.10
2019-02-08T22:33:11.212Z,2.20
2019-02-08T22:35:39.884Z,2.20
2019-02-08T22:38:09.120Z,1.80
2019-02-08T22:40:38.102Z,2.23
2019-02-08T22:43:07.480Z,2.10
2019-02-08T22:45:37.718Z,2.30
2019-02-08T22:48:06.691Z,2.50
2019-02-08T22:50:35.620Z,2.57
2019-02-08T22:53:06.159Z,2.17
2019-02-08T22:55:36.104Z,2.00
2019-02-08T22:58:06.652Z,1.60
2019-02-08T23:00:41.409Z,1.93
2019-02-08T23:03:12.468Z,1.83
2019-02-08T23:05:45.839Z,2.27
2019-02-08T23:08:12.128Z,2.10
2019-02-08T23:10:41.063Z,1.83
2019-02-08T23:13:10.119Z,2.50
2019-02-08T23:15:38.915Z,2.23
2019-02-08T23:18:08.996Z,2.20
2019-02-08T23:20:37.679Z,2.20
2019-02-08T23:23:07.307Z,2.73
2019-02-08T23:25:35.716Z,1.70
2019-02-08T23:28:04.681Z,1.93
2019-02-08T23:30:33.089Z,2.27
2019-02-08T23:33:01.504Z,1.60
2019-02-08T23:35:29.982Z,1.83
2019-02-08T23:37:58.389Z,1.80
2019-02-08T23:40:46.128Z,2.20
2019-02-08T23:43:14.554Z,2.23
2019-02-08T23:45:42.969Z,1.50
2019-02-08T23:48:11.667Z,1.93
2019-02-08T23:50:40.067Z,2.33
2019-02-08T23:53:09.032Z,1.87
2019-02-08T23:55:37.448Z,2.03
2019-02-08T23:58:06.124Z,2.20
